Time;durP1;ratioP1;P1;durP2;ratioP2;P2;SDS_P1;SDS_P2;PMS_P1;PMS_P2;Temp;Humidity;BMP_temperature;BMP_pressure;BME280_temperature;BME280_humidity;BME280_pressure;Samples;Min_cycle;Max_cycle;Signal;HPM_P1;HPM_P2
2023/03/04 00:01:59;;;;;;;17.98;4.40;;;;;;;;;;4978595;28;20444;-77
2023/03/04 00:04:25;;;;;;;20.37;4.70;;;;;;;;;;4995413;28;20539;-77
2023/03/04 00:06:51;;;;;;;19.67;4.30;;;;;;;;;;4978682;28;20508;-77
2023/03/04 00:09:17;;;;;;;21.90;4.57;;;;;;;;;;4978641;28;20429;-77
2023/03/04 00:11:43;;;;;;;16.60;4.13;;;;;;;;;;4978692;28;20494;-85
2023/03/04 00:14:09;;;;;;;20.53;4.00;;;;;;;;;;4978933;28;20420;-84
2023/03/04 00:16:35;;;;;;;18.05;4.03;;;;;;;;;;4995788;28;20460;-84
2023/03/04 00:19:01;;;;;;;18.73;3.97;;;;;;;;;;4978124;28;20459;-84
2023/03/04 00:21:27;;;;;;;22.02;4.45;;;;;;;;;;4978539;28;20436;-84
2023/03/04 00:23:53;;;;;;;20.30;4.25;;;;;;;;;;4994499;28;20445;-84
2023/03/04 00:26:19;;;;;;;19.15;4.30;;;;;;;;;;4978300;28;20436;-84
2023/03/04 00:28:46;;;;;;;21.58;4.50;;;;;;;;;;4994549;28;20428;-77
2023/03/04 00:31:12;;;;;;;17.58;3.92;;;;;;;;;;4984508;28;20436;-77
2023/03/04 00:33:39;;;;;;;18.13;3.70;;;;;;;;;;4996691;28;20440;-77
2023/03/04 00:36:05;;;;;;;19.27;3.92;;;;;;;;;;4969788;28;20431;-77
2023/03/04 00:38:31;;;;;;;20.92;4.60;;;;;;;;;;4978686;28;20417;-77
2023/03/04 00:40:57;;;;;;;17.48;4.57;;;;;;;;;;4994087;28;20420;-77
2023/03/04 00:43:23;;;;;;;19.48;4.35;;;;;;;;;;4994576;28;20421;-77
2023/03/04 00:45:49;;;;;;;17.75;4.00;;;;;;;;;;4978802;28;20432;-77
2023/03/04 00:48:15;;;;;;;19.27;4.22;;;;;;;;;;4976395;28;20553;-77
2023/03/04 00:50:42;;;;;;;17.98;4.13;;;;;;;;;;4988776;28;20463;-77
2023/03/04 00:53:08;;;;;;;18.77;3.92;;;;;;;;;;4994383;28;20411;-77
2023/03/04 00:55:34;;;;;;;17.23;3.13;;;;;;;;;;4995547;28;20236;-77
2023/03/04 00:58:00;;;;;;;21.42;4.07;;;;;;;;;;4993957;28;20436;-77
2023/03/04 01:00:26;;;;;;;17.53;3.37;;;;;;;;;;4994933;28;20178;-77
2023/03/04 01:02:52;;;;;;;19.20;4.18;;;;;;;;;;4977578;28;20444;-77
2023/03/04 01:05:18;;;;;;;14.75;3.90;;;;;;;;;;4992639;28;20420;-77
2023/03/04 01:07:44;;;;;;;19.38;4.07;;;;;;;;;;4993587;28;20429;-78
2023/03/04 01:10:13;;;;;;;16.27;3.88;;;;;;;;;;4994410;28;20464;-77
2023/03/04 01:12:40;;;;;;;19.47;4.03;;;;;;;;;;4993259;28;20506;-78
2023/03/04 01:15:06;;;;;;;14.77;3.80;;;;;;;;;;4993813;28;20455;-77
2023/03/04 01:17:33;;;;;;;16.38;3.63;;;;;;;;;;4993687;28;20420;-80
2023/03/04 01:19:59;;;;;;;14.80;3.40;;;;;;;;;;4976360;28;20516;-80
2023/03/04 01:22:25;;;;;;;15.63;3.50;;;;;;;;;;4977225;28;20447;-80
2023/03/04 01:24:51;;;;;;;14.85;3.58;;;;;;;;;;4994090;28;20425;-80
2023/03/04 01:27:17;;;;;;;20.25;4.10;;;;;;;;;;4981407;28;20427;-80
2023/03/04 01:29:43;;;;;;;18.67;3.83;;;;;;;;;;4977074;28;21851;-80
2023/03/04 01:32:09;;;;;;;23.05;4.10;;;;;;;;;;4993243;28;20432;-80
2023/03/04 01:34:35;;;;;;;17.17;4.03;;;;;;;;;;4993007;28;20443;-84
2023/03/04 01:37:01;;;;;;;16.63;3.80;;;;;;;;;;4994194;28;20415;-84
2023/03/04 01:39:27;;;;;;;16.25;3.70;;;;;;;;;;4977547;28;20417;-84
2023/03/04 01:41:53;;;;;;;23.70;4.45;;;;;;;;;;4992744;28;20445;-84
2023/03/04 01:44:19;;;;;;;20.85;4.47;;;;;;;;;;5009439;28;20432;-84
2023/03/04 01:46:51;;;;;;;17.30;3.67;;;;;;;;;;4977061;28;20432;-84
2023/03/04 01:49:17;;;;;;;15.60;3.70;;;;;;;;;;4992951;28;20424;-84
2023/03/04 01:51:44;;;;;;;17.02;3.47;;;;;;;;;;4977044;28;20424;-80
2023/03/04 01:54:10;;;;;;;18.97;4.00;;;;;;;;;;4992699;28;20475;-80
2023/03/04 01:56:37;;;;;;;15.05;3.85;;;;;;;;;;4976714;28;20512;-80
2023/03/04 01:59:11;;;;;;;19.27;3.90;;;;;;;;;;4992338;28;20421;-80
2023/03/04 02:01:37;;;;;;;19.13;3.60;;;;;;;;;;4992096;28;20696;-80
2023/03/04 02:04:03;;;;;;;16.90;3.88;;;;;;;;;;4992751;28;20416;-80
2023/03/04 02:06:29;;;;;;;17.10;3.50;;;;;;;;;;4992565;28;20423;-80
2023/03/04 02:08:56;;;;;;;17.35;3.60;;;;;;;;;;4992580;28;20423;-77
2023/03/04 02:11:22;;;;;;;17.90;3.47;;;;;;;;;;4976663;28;20495;-77
2023/03/04 02:13:48;;;;;;;18.07;3.80;;;;;;;;;;4976300;28;20428;-77
2023/03/04 02:16:14;;;;;;;16.95;3.67;;;;;;;;;;4976424;28;20428;-77
2023/03/04 02:18:40;;;;;;;21.93;4.00;;;;;;;;;;4976451;28;20506;-77
2023/03/04 02:21:22;;;;;;;19.65;3.72;;;;;;;;;;4976463;28;20432;-77
2023/03/04 02:23:51;;;;;;;14.65;3.40;;;;;;;;;;4987880;28;20436;-80
2023/03/04 02:26:17;;;;;;;13.63;3.45;;;;;;;;;;4992474;28;20431;-80
2023/03/04 02:28:44;;;;;;;19.92;3.80;;;;;;;;;;4992467;28;20421;-80
2023/03/04 02:31:21;;;;;;;13.73;3.40;;;;;;;;;;4993399;28;20436;-80
2023/03/04 02:33:47;;;;;;;17.48;3.40;;;;;;;;;;4992498;28;20512;-80
2023/03/04 02:36:13;;;;;;;15.00;3.60;;;;;;;;;;4992160;28;20425;-80
2023/03/04 02:38:39;;;;;;;18.35;3.75;;;;;;;;;;4992661;28;20436;-80
2023/03/04 02:41:06;;;;;;;16.02;3.45;;;;;;;;;;4992180;28;20436;-77
2023/03/04 02:43:32;;;;;;;17.35;3.53;;;;;;;;;;4993366;28;20468;-77
2023/03/04 02:45:58;;;;;;;16.50;3.78;;;;;;;;;;4991829;28;20424;-77
2023/03/04 02:48:24;;;;;;;14.93;3.55;;;;;;;;;;5008452;28;20436;-77
2023/03/04 02:50:51;;;;;;;17.55;3.50;;;;;;;;;;4974357;28;20447;-78
2023/03/04 02:53:19;;;;;;;14.40;3.70;;;;;;;;;;4989744;28;20496;-77
2023/03/04 02:55:45;;;;;;;14.55;3.30;;;;;;;;;;4982475;28;20493;-77
2023/03/04 02:58:11;;;;;;;14.63;3.25;;;;;;;;;;4973176;28;20410;-77
2023/03/04 03:00:37;;;;;;;16.73;3.40;;;;;;;;;;4990812;28;20409;-77
2023/03/04 03:03:03;;;;;;;15.40;3.55;;;;;;;;;;4992203;28;20443;-77
2023/03/04 03:05:31;;;;;;;14.15;3.20;;;;;;;;;;4984258;28;20514;-76
2023/03/04 03:07:57;;;;;;;15.80;3.53;;;;;;;;;;4990950;28;20517;-76
2023/03/04 03:10:24;;;;;;;16.23;3.08;;;;;;;;;;4960156;28;20525;-76
2023/03/04 03:12:50;;;;;;;15.23;3.53;;;;;;;;;;4991452;28;20467;-76
2023/03/04 03:15:16;;;;;;;14.63;3.45;;;;;;;;;;4992997;28;20425;-82
2023/03/04 03:17:42;;;;;;;15.60;3.40;;;;;;;;;;4992357;28;20493;-83
2023/03/04 03:20:10;;;;;;;16.40;3.42;;;;;;;;;;4986315;28;20431;-83
2023/03/04 03:22:36;;;;;;;12.80;3.20;;;;;;;;;;4997780;28;20531;-83
2023/03/04 03:25:02;;;;;;;14.50;3.20;;;;;;;;;;4991671;28;20500;-82
2023/03/04 03:27:28;;;;;;;12.23;3.03;;;;;;;;;;4992297;28;20464;-83
2023/03/04 03:29:54;;;;;;;17.20;3.38;;;;;;;;;;4980442;28;20466;-83
2023/03/04 03:32:20;;;;;;;12.35;3.15;;;;;;;;;;4995750;28;20417;-83
2023/03/04 03:34:47;;;;;;;16.13;3.43;;;;;;;;;;4979496;28;20425;-82
2023/03/04 03:37:13;;;;;;;14.33;2.70;;;;;;;;;;4996132;28;20429;-83
2023/03/04 03:39:39;;;;;;;14.23;3.10;;;;;;;;;;4995722;28;20482;-83
2023/03/04 03:42:05;;;;;;;14.80;3.28;;;;;;;;;;4995694;28;20433;-83
2023/03/04 03:44:32;;;;;;;13.60;3.33;;;;;;;;;;4995553;28;20416;-83
2023/03/04 03:46:58;;;;;;;13.57;3.10;;;;;;;;;;5012117;28;20421;-77
2023/03/04 03:49:24;;;;;;;15.70;3.10;;;;;;;;;;4979040;28;20425;-76
2023/03/04 03:51:50;;;;;;;15.00;3.10;;;;;;;;;;4995770;28;20443;-76
2023/03/04 03:54:16;;;;;;;14.63;3.28;;;;;;;;;;4995784;28;20480;-77
2023/03/04 03:56:42;;;;;;;13.23;3.10;;;;;;;;;;4995116;28;20424;-76
2023/03/04 03:59:08;;;;;;;14.23;3.17;;;;;;;;;;4979028;28;20401;-76
2023/03/04 04:01:34;;;;;;;13.80;3.10;;;;;;;;;;4996289;28;20424;-77
2023/03/04 04:04:00;;;;;;;16.05;3.22;;;;;;;;;;4994970;28;20441;-82
2023/03/04 04:06:26;;;;;;;13.27;3.17;;;;;;;;;;4991617;28;20425;-83
2023/03/04 04:08:52;;;;;;;15.57;3.17;;;;;;;;;;4997046;28;20485;-82
2023/03/04 04:11:18;;;;;;;14.43;3.00;;;;;;;;;;4996183;28;20487;-84
2023/03/04 04:13:44;;;;;;;17.17;3.20;;;;;;;;;;4994364;28;20421;-83
2023/03/04 04:16:11;;;;;;;15.38;3.08;;;;;;;;;;4972414;28;20432;-83
2023/03/04 04:18:37;;;;;;;16.38;3.20;;;;;;;;;;4980461;28;20422;-83
2023/03/04 04:21:03;;;;;;;13.35;2.80;;;;;;;;;;4998314;28;20423;-83
2023/03/04 04:23:30;;;;;;;17.13;3.20;;;;;;;;;;4992412;28;20444;-83
2023/03/04 04:25:56;;;;;;;12.30;2.90;;;;;;;;;;4978920;28;20482;-83
2023/03/04 04:28:22;;;;;;;12.15;2.83;;;;;;;;;;4976792;28;20457;-84
2023/03/04 04:30:48;;;;;;;13.50;2.97;;;;;;;;;;4988292;28;20483;-82
2023/03/04 04:33:14;;;;;;;12.48;2.70;;;;;;;;;;4967608;28;20424;-83
2023/03/04 04:35:40;;;;;;;13.63;3.00;;;;;;;;;;4987982;28;20431;-83
2023/03/04 04:38:07;;;;;;;11.07;2.53;;;;;;;;;;4973673;28;20367;-77
2023/03/04 04:40:33;;;;;;;12.43;2.70;;;;;;;;;;4978289;28;20429;-77
2023/03/04 04:42:59;;;;;;;11.55;2.70;;;;;;;;;;4993633;28;20436;-77
2023/03/04 04:45:25;;;;;;;9.68;2.75;;;;;;;;;;4995091;28;20428;-77
2023/03/04 04:47:51;;;;;;;13.25;2.78;;;;;;;;;;4987085;28;20420;-78
2023/03/04 04:50:17;;;;;;;14.63;2.97;;;;;;;;;;5006897;28;20445;-78
2023/03/04 04:52:43;;;;;;;12.00;2.50;;;;;;;;;;4967959;28;20435;-78
2023/03/04 04:55:18;;;;;;;9.70;2.40;;;;;;;;;;4984040;28;20454;-77
2023/03/04 04:57:44;;;;;;;11.97;2.87;;;;;;;;;;4967129;28;20426;-78
2023/03/04 05:00:11;;;;;;;10.40;2.80;;;;;;;;;;4976726;28;20556;-78
2023/03/04 05:02:37;;;;;;;13.50;2.60;;;;;;;;;;4994692;28;20448;-78
2023/03/04 05:05:04;;;;;;;12.63;2.47;;;;;;;;;;4993405;28;20431;-78
2023/03/04 05:07:30;;;;;;;10.57;2.58;;;;;;;;;;4994405;28;20420;-78
2023/03/04 05:09:56;;;;;;;12.35;2.72;;;;;;;;;;4994201;28;20420;-78
2023/03/04 05:12:22;;;;;;;14.13;2.80;;;;;;;;;;4990463;28;20417;-81
2023/03/04 05:14:48;;;;;;;11.60;2.90;;;;;;;;;;4993508;28;20424;-81
2023/03/04 05:17:14;;;;;;;11.95;2.58;;;;;;;;;;4994713;28;20500;-80
2023/03/04 05:19:40;;;;;;;15.52;3.08;;;;;;;;;;4967094;28;20410;-80
2023/03/04 05:22:06;;;;;;;14.85;3.00;;;;;;;;;;4976725;28;20433;-79
2023/03/04 05:24:33;;;;;;;13.75;2.80;;;;;;;;;;4983016;28;20429;-79
2023/03/04 05:26:59;;;;;;;14.98;3.05;;;;;;;;;;4978686;28;20441;-77
2023/03/04 05:29:25;;;;;;;12.95;2.90;;;;;;;;;;4993514;28;20405;-77
2023/03/04 05:31:51;;;;;;;13.55;2.90;;;;;;;;;;4989660;28;20437;-77
2023/03/04 05:34:17;;;;;;;13.50;3.20;;;;;;;;;;4965671;28;20417;-77
2023/03/04 05:36:43;;;;;;;11.45;3.25;;;;;;;;;;4993194;28;20415;-77
2023/03/04 05:39:10;;;;;;;13.73;2.70;;;;;;;;;;4975988;28;20402;-77
2023/03/04 05:41:36;;;;;;;13.85;3.10;;;;;;;;;;4965715;28;20412;-76
2023/03/04 05:44:02;;;;;;;16.65;2.90;;;;;;;;;;4982561;28;20450;-76
2023/03/04 05:46:28;;;;;;;11.60;2.78;;;;;;;;;;4990537;28;20408;-76
2023/03/04 05:48:54;;;;;;;10.60;2.42;;;;;;;;;;4991658;28;20412;-76
2023/03/04 05:51:20;;;;;;;9.65;2.65;;;;;;;;;;4973273;28;20418;-77
2023/03/04 05:53:47;;;;;;;13.65;3.28;;;;;;;;;;4992307;28;20476;-77
2023/03/04 05:56:15;;;;;;;12.55;3.00;;;;;;;;;;4990826;28;20465;-77
2023/03/04 05:58:42;;;;;;;13.05;2.60;;;;;;;;;;4994266;28;20526;-77
2023/03/04 06:01:08;;;;;;;15.68;3.00;;;;;;;;;;4993235;28;20502;-77
2023/03/04 06:03:34;;;;;;;13.13;3.08;;;;;;;;;;4992930;28;20434;-76
2023/03/04 06:06:01;;;;;;;10.32;2.58;;;;;;;;;;4992996;28;20531;-76
2023/03/04 06:08:28;;;;;;;12.55;2.75;;;;;;;;;;4993068;28;20478;-76
2023/03/04 06:10:55;;;;;;;13.87;3.10;;;;;;;;;;4992859;28;20459;-76
2023/03/04 06:13:21;;;;;;;11.83;2.83;;;;;;;;;;4993145;28;20513;-76
2023/03/04 06:15:52;;;;;;;11.73;2.90;;;;;;;;;;4993843;28;20450;-76
2023/03/04 06:18:18;;;;;;;12.50;2.73;;;;;;;;;;4987049;28;20510;-77
2023/03/04 06:20:44;;;;;;;11.65;2.95;;;;;;;;;;4965202;28;20473;-77
2023/03/04 06:23:10;;;;;;;11.55;2.60;;;;;;;;;;4973023;28;20504;-77
2023/03/04 06:25:36;;;;;;;9.65;2.58;;;;;;;;;;4991469;28;20432;-77
2023/03/04 06:28:02;;;;;;;11.83;2.63;;;;;;;;;;4960359;28;20417;-77
2023/03/04 06:30:28;;;;;;;12.07;2.78;;;;;;;;;;4977628;28;20448;-77
2023/03/04 06:32:54;;;;;;;13.32;2.53;;;;;;;;;;4976377;28;20428;-77
2023/03/04 06:35:21;;;;;;;9.90;2.60;;;;;;;;;;4993075;28;20464;-76
2023/03/04 06:37:47;;;;;;;14.40;2.80;;;;;;;;;;5008933;28;20412;-77
2023/03/04 06:40:13;;;;;;;10.80;2.60;;;;;;;;;;4976376;28;20428;-76
2023/03/04 06:42:40;;;;;;;11.93;2.72;;;;;;;;;;4976551;28;20437;-76
2023/03/04 06:45:06;;;;;;;11.63;3.05;;;;;;;;;;4992003;28;20476;-77
2023/03/04 06:47:32;;;;;;;10.60;3.08;;;;;;;;;;4992468;28;20420;-77
2023/03/04 06:49:58;;;;;;;11.73;2.95;;;;;;;;;;4993605;28;20416;-77
2023/03/04 06:52:24;;;;;;;14.73;3.35;;;;;;;;;;5007647;28;20428;-80
2023/03/04 06:54:51;;;;;;;11.02;2.75;;;;;;;;;;4976057;28;20449;-79
2023/03/04 06:57:17;;;;;;;14.82;3.28;;;;;;;;;;4992449;28;20428;-80
2023/03/04 06:59:43;;;;;;;11.15;2.92;;;;;;;;;;4976127;28;20452;-80
2023/03/04 07:02:11;;;;;;;13.38;2.55;;;;;;;;;;5008146;28;20409;-79
2023/03/04 07:04:37;;;;;;;10.35;2.75;;;;;;;;;;4995688;28;20471;-79
2023/03/04 07:07:03;;;;;;;11.93;2.72;;;;;;;;;;4996241;28;20408;-77
2023/03/04 07:09:29;;;;;;;13.32;2.92;;;;;;;;;;4979995;28;20499;-77
2023/03/04 07:11:55;;;;;;;10.10;2.58;;;;;;;;;;4996818;28;20424;-77
2023/03/04 07:14:21;;;;;;;12.75;2.67;;;;;;;;;;4996089;28;20412;-77
2023/03/04 07:16:47;;;;;;;10.95;2.70;;;;;;;;;;4980056;28;20413;-77
2023/03/04 07:19:13;;;;;;;10.70;2.53;;;;;;;;;;4996044;28;20439;-77
2023/03/04 07:21:39;;;;;;;15.13;2.97;;;;;;;;;;4995922;28;20460;-77
2023/03/04 07:24:08;;;;;;;12.03;2.93;;;;;;;;;;4978567;28;20440;-77
2023/03/04 07:26:36;;;;;;;11.90;2.90;;;;;;;;;;4980016;28;20428;-77
2023/03/04 07:29:02;;;;;;;14.73;3.08;;;;;;;;;;4995835;28;20479;-77
2023/03/04 07:31:30;;;;;;;14.48;3.15;;;;;;;;;;4995861;28;20413;-77
2023/03/04 07:34:00;;;;;;;12.15;2.95;;;;;;;;;;4987937;28;20435;-77
2023/03/04 07:36:27;;;;;;;11.52;2.65;;;;;;;;;;4992939;28;20416;-77
2023/03/04 07:38:56;;;;;;;15.32;2.83;;;;;;;;;;4976368;28;20445;-77
2023/03/04 07:41:23;;;;;;;13.00;3.00;;;;;;;;;;4970913;28;20418;-78
2023/03/04 07:43:49;;;;;;;11.60;2.58;;;;;;;;;;4985716;28;20447;-78
2023/03/04 07:46:16;;;;;;;12.63;2.92;;;;;;;;;;4994254;28;20421;-77
2023/03/04 07:48:42;;;;;;;13.55;2.80;;;;;;;;;;4979624;28;20428;-78
2023/03/04 07:51:13;;;;;;;12.77;2.67;;;;;;;;;;4976885;28;20494;-78
2023/03/04 07:53:39;;;;;;;14.65;3.08;;;;;;;;;;4996815;28;20413;-78
2023/03/04 07:56:06;;;;;;;12.30;2.75;;;;;;;;;;4970494;28;20433;-77
2023/03/04 07:58:32;;;;;;;12.00;3.00;;;;;;;;;;4984046;28;20416;-84
2023/03/04 08:00:58;;;;;;;10.48;3.00;;;;;;;;;;4966871;28;20422;-84
2023/03/04 08:03:24;;;;;;;15.10;3.15;;;;;;;;;;4967534;28;20463;-84
2023/03/04 08:05:50;;;;;;;11.13;2.80;;;;;;;;;;4985573;28;20410;-84
2023/03/04 08:08:16;;;;;;;10.90;2.70;;;;;;;;;;4984360;28;20493;-84
2023/03/04 08:10:49;;;;;;;10.93;2.75;;;;;;;;;;4983837;28;20477;-83
2023/03/04 08:13:15;;;;;;;14.23;2.85;;;;;;;;;;4987318;28;20417;-78
2023/03/04 08:15:42;;;;;;;12.75;2.83;;;;;;;;;;4994894;28;20412;-84
2023/03/04 08:18:08;;;;;;;11.87;2.90;;;;;;;;;;4995089;28;20434;-83
2023/03/04 08:20:34;;;;;;;10.93;2.67;;;;;;;;;;4978784;28;20413;-84
2023/03/04 08:23:00;;;;;;;10.47;2.57;;;;;;;;;;4994937;28;20479;-83
2023/03/04 08:25:26;;;;;;;9.73;2.50;;;;;;;;;;4978889;28;20425;-83
2023/03/04 08:27:52;;;;;;;11.60;2.58;;;;;;;;;;4990602;28;20422;-83
2023/03/04 08:30:18;;;;;;;10.20;2.50;;;;;;;;;;4992192;28;20425;-83
2023/03/04 08:32:44;;;;;;;11.10;2.90;;;;;;;;;;4975277;28;20509;-83
2023/03/04 08:35:10;;;;;;;9.00;2.50;;;;;;;;;;4975754;28;20418;-83
2023/03/04 08:37:36;;;;;;;11.38;2.40;;;;;;;;;;4991690;28;20445;-82
2023/03/04 08:40:02;;;;;;;6.93;2.17;;;;;;;;;;4976147;28;20454;-80
2023/03/04 08:42:28;;;;;;;8.27;2.10;;;;;;;;;;4975364;28;20434;-79
2023/03/04 08:44:54;;;;;;;8.83;2.60;;;;;;;;;;4990999;28;20421;-79
2023/03/04 08:47:20;;;;;;;7.30;2.30;;;;;;;;;;4975438;28;20403;-84
2023/03/04 08:49:46;;;;;;;8.70;2.40;;;;;;;;;;4990825;28;20410;-83
2023/03/04 08:52:12;;;;;;;8.48;2.63;;;;;;;;;;4991030;28;20407;-84
2023/03/04 08:54:38;;;;;;;8.43;2.20;;;;;;;;;;4991138;28;20457;-83
2023/03/04 08:57:06;;;;;;;9.63;2.60;;;;;;;;;;4974530;28;20419;-83
2023/03/04 08:59:32;;;;;;;10.50;2.70;;;;;;;;;;4974759;28;20426;-83
2023/03/04 09:01:58;;;;;;;10.23;2.70;;;;;;;;;;4975373;28;20413;-83
2023/03/04 09:04:24;;;;;;;7.03;2.40;;;;;;;;;;4974962;28;20414;-83
2023/03/04 09:06:50;;;;;;;8.57;2.43;;;;;;;;;;4974538;28;20415;-83
2023/03/04 09:09:16;;;;;;;6.82;2.38;;;;;;;;;;4991434;23;20461;-80
2023/03/04 09:11:42;;;;;;;9.30;2.38;;;;;;;;;;4960170;28;20529;-80
2023/03/04 09:14:08;;;;;;;6.93;2.20;;;;;;;;;;4962990;28;20420;-80
2023/03/04 09:16:34;;;;;;;8.38;2.20;;;;;;;;;;4973985;28;20399;-80
2023/03/04 09:19:00;;;;;;;5.90;2.30;;;;;;;;;;4954118;28;20414;-80
2023/03/04 09:21:26;;;;;;;10.90;2.40;;;;;;;;;;4988672;28;20405;-83
2023/03/04 09:23:52;;;;;;;8.85;2.50;;;;;;;;;;4969256;28;20453;-83
2023/03/04 09:26:23;;;;;;;8.20;2.42;;;;;;;;;;4964872;28;20526;-83
2023/03/04 09:28:50;;;;;;;6.07;2.20;;;;;;;;;;4979214;28;20418;-83
2023/03/04 09:31:16;;;;;;;9.60;2.63;;;;;;;;;;5003795;28;20404;-83
2023/03/04 09:33:42;;;;;;;6.53;2.30;;;;;;;;;;4973739;28;20550;-83
2023/03/04 09:36:09;;;;;;;6.93;2.28;;;;;;;;;;4975446;28;20439;-83
2023/03/04 09:38:37;;;;;;;7.50;2.30;;;;;;;;;;4976431;28;20436;-84
2023/03/04 09:41:05;;;;;;;6.35;2.00;;;;;;;;;;4954272;28;20468;-82
2023/03/04 09:43:32;;;;;;;6.50;2.22;;;;;;;;;;4976895;28;20513;-82
2023/03/04 09:46:01;;;;;;;5.70;2.07;;;;;;;;;;4972866;28;20429;-82
2023/03/04 09:48:29;;;;;;;5.50;2.10;;;;;;;;;;4994722;28;20416;-82
2023/03/04 09:51:06;;;;;;;5.70;2.35;;;;;;;;;;4973605;28;20404;-82
2023/03/04 09:53:40;;;;;;;5.55;2.20;;;;;;;;;;4970574;28;20512;-82
2023/03/04 09:56:06;;;;;;;5.95;2.10;;;;;;;;;;4971000;28;20420;-82
2023/03/04 09:58:42;;;;;;;3.97;2.10;;;;;;;;;;4970683;28;20410;-82
2023/03/04 10:01:17;;;;;;;4.65;2.20;;;;;;;;;;4968504;28;20418;-82
2023/03/04 10:03:50;;;;;;;5.03;2.03;;;;;;;;;;4971330;28;20490;-82
2023/03/04 10:06:17;;;;;;;4.63;2.00;;;;;;;;;;4973565;28;20556;-82
2023/03/04 10:08:47;;;;;;;3.53;1.80;;;;;;;;;;4992379;28;20448;-81
2023/03/04 10:11:23;;;;;;;4.65;1.90;;;;;;;;;;4970725;28;20496;-76
2023/03/04 10:13:52;;;;;;;5.45;1.80;;;;;;;;;;4971270;28;20420;-76
2023/03/04 10:16:21;;;;;;;3.95;1.75;;;;;;;;;;4970434;28;20418;-76
2023/03/04 10:18:59;;;;;;;3.92;1.70;;;;;;;;;;4969424;28;20408;-76
2023/03/04 10:21:29;;;;;;;3.85;1.75;;;;;;;;;;4972326;28;20432;-76
2023/03/04 10:23:56;;;;;;;4.03;1.55;;;;;;;;;;4986404;28;20468;-76
2023/03/04 10:26:22;;;;;;;3.05;1.63;;;;;;;;;;4986767;28;20405;-76
2023/03/04 10:28:49;;;;;;;3.75;1.60;;;;;;;;;;4989457;28;20410;-79
2023/03/04 10:31:18;;;;;;;4.03;1.60;;;;;;;;;;4994501;28;20410;-79
2023/03/04 10:33:44;;;;;;;5.57;4.05;;;;;;;;;;4980432;28;20480;-79
2023/03/04 10:36:29;;;;;;;4.03;1.85;;;;;;;;;;5004601;28;20416;-79
2023/03/04 10:38:58;;;;;;;3.85;2.80;;;;;;;;;;4981735;28;20450;-79
2023/03/04 10:41:26;;;;;;;4.68;2.35;;;;;;;;;;4996135;28;20418;-79
2023/03/04 10:44:07;;;;;;;5.53;2.85;;;;;;;;;;4985779;28;20454;-77
2023/03/04 10:46:37;;;;;;;4.82;2.53;;;;;;;;;;4976679;28;20493;-77
2023/03/04 10:49:03;;;;;;;4.43;2.80;;;;;;;;;;4980019;28;20424;-77
2023/03/04 10:51:29;;;;;;;5.10;2.35;;;;;;;;;;4994569;28;20478;-77
2023/03/04 10:54:00;;;;;;;3.80;2.40;;;;;;;;;;4971270;28;20508;-82
2023/03/04 10:56:32;;;;;;;6.20;2.50;;;;;;;;;;4974874;28;20455;-82
2023/03/04 10:59:17;;;;;;;3.92;2.33;;;;;;;;;;4975017;28;20448;-83
2023/03/04 11:01:43;;;;;;;4.07;2.70;;;;;;;;;;4974985;28;20412;-77
2023/03/04 11:04:17;;;;;;;7.50;6.47;;;;;;;;;;4958174;28;20440;-77
2023/03/04 11:06:43;;;;;;;5.80;3.90;;;;;;;;;;4979737;28;20443;-77
2023/03/04 11:09:21;;;;;;;5.13;2.47;;;;;;;;;;4961998;28;20475;-77
2023/03/04 11:11:49;;;;;;;5.78;3.00;;;;;;;;;;4969839;28;20424;-77
2023/03/04 11:14:15;;;;;;;6.00;2.80;;;;;;;;;;4991869;28;20425;-77
2023/03/04 11:16:41;;;;;;;5.15;2.60;;;;;;;;;;4969851;28;20403;-77
2023/03/04 11:19:14;;;;;;;4.15;1.90;;;;;;;;;;4944845;28;20425;-82
2023/03/04 11:21:40;;;;;;;2.95;1.90;;;;;;;;;;4977497;28;20464;-82
2023/03/04 11:24:12;;;;;;;4.30;1.70;;;;;;;;;;4986619;28;20492;-82
2023/03/04 11:26:49;;;;;;;2.70;1.40;;;;;;;;;;4997039;28;20432;-82
2023/03/04 11:29:20;;;;;;;1.98;1.33;;;;;;;;;;4974406;28;20417;-83
2023/03/04 11:31:49;;;;;;;2.30;1.30;;;;;;;;;;4979873;28;20506;-82
2023/03/04 11:34:38;;;;;;;2.05;1.30;;;;;;;;;;4980134;28;20408;-76
2023/03/04 11:37:24;;;;;;;1.77;1.38;;;;;;;;;;4961096;28;20416;-76
2023/03/04 11:39:52;;;;;;;2.55;1.30;;;;;;;;;;4976805;28;20420;-77
2023/03/04 11:42:44;;;;;;;1.10;0.90;;;;;;;;;;4973982;28;20204;-77
2023/03/04 11:45:15;;;;;;;2.70;1.10;;;;;;;;;;4975524;28;20193;-78
2023/03/04 11:47:50;;;;;;;2.20;1.00;;;;;;;;;;4972972;28;20175;-77
2023/03/04 11:50:31;;;;;;;2.85;1.10;;;;;;;;;;4966374;28;20405;-76
2023/03/04 11:53:04;;;;;;;3.45;1.20;;;;;;;;;;4968279;28;20438;-78
2023/03/04 11:55:42;;;;;;;2.38;1.30;;;;;;;;;;4979703;28;20458;-79
2023/03/04 11:58:08;;;;;;;2.65;1.23;;;;;;;;;;4970016;28;20415;-78
2023/03/04 12:00:47;;;;;;;2.72;1.40;;;;;;;;;;4978869;28;20420;-79
2023/03/04 12:03:13;;;;;;;2.90;1.10;;;;;;;;;;4979481;28;20526;-78
2023/03/04 12:05:39;;;;;;;2.85;1.20;;;;;;;;;;4995280;28;20482;-79
2023/03/04 12:08:08;;;;;;;1.38;1.10;;;;;;;;;;4998758;28;20546;-83
2023/03/04 12:10:35;;;;;;;3.10;1.40;;;;;;;;;;4998644;28;20474;-82
2023/03/04 12:13:20;;;;;;;1.85;1.30;;;;;;;;;;4998437;28;20498;-82
2023/03/04 12:15:55;;;;;;;3.10;2.00;;;;;;;;;;4978268;28;20435;-82
2023/03/04 12:18:24;;;;;;;3.15;1.60;;;;;;;;;;4995665;28;20451;-82
2023/03/04 12:21:01;;;;;;;2.78;1.45;;;;;;;;;;4978641;28;20508;-82
2023/03/04 12:23:30;;;;;;;3.25;1.42;;;;;;;;;;4978756;28;20486;-82
2023/03/04 12:26:00;;;;;;;3.40;1.60;;;;;;;;;;4978625;28;20416;-78
2023/03/04 12:28:33;;;;;;;3.30;1.58;;;;;;;;;;4978756;28;20420;-78
2023/03/04 12:31:35;;;;;;;3.00;1.50;;;;;;;;;;4974255;28;20418;-78
2023/03/04 12:34:19;;;;;;;2.40;1.30;;;;;;;;;;4919501;29;20421;-80
2023/03/04 12:36:55;;;;;;;3.03;1.45;;;;;;;;;;4956761;28;20406;-80
2023/03/04 12:39:32;;;;;;;2.58;1.40;;;;;;;;;;4969876;28;20441;-78
2023/03/04 12:42:08;;;;;;;3.43;1.30;;;;;;;;;;4972921;28;20428;-77
2023/03/04 12:44:37;;;;;;;3.92;1.60;;;;;;;;;;4978248;28;20429;-77
2023/03/04 12:47:13;;;;;;;6.40;1.83;;;;;;;;;;4977558;28;20428;-77
2023/03/04 12:49:42;;;;;;;6.72;2.00;;;;;;;;;;4995887;28;20412;-77
2023/03/04 12:52:08;;;;;;;8.07;2.13;;;;;;;;;;4977413;28;20417;-76
2023/03/04 12:54:36;;;;;;;8.27;2.20;;;;;;;;;;4976846;28;20413;-77
2023/03/04 12:57:23;;;;;;;8.07;2.40;;;;;;;;;;4977831;28;20424;-77
2023/03/04 13:00:09;;;;;;;9.82;2.60;;;;;;;;;;4977860;28;20466;-77
2023/03/04 13:02:35;;;;;;;9.50;2.50;;;;;;;;;;4964855;28;20435;-77
2023/03/04 13:05:19;;;;;;;9.82;2.63;;;;;;;;;;4976316;28;20433;-77
2023/03/04 13:07:48;;;;;;;10.50;2.67;;;;;;;;;;4977773;28;20420;-79
2023/03/04 13:10:15;;;;;;;8.50;2.47;;;;;;;;;;4994866;28;20526;-79
2023/03/04 13:12:50;;;;;;;9.75;2.72;;;;;;;;;;4977333;28;20424;-79
2023/03/04 13:15:17;;;;;;;8.32;2.33;;;;;;;;;;4977112;28;20424;-79
2023/03/04 13:17:48;;;;;;;9.15;2.33;;;;;;;;;;4994938;28;20435;-78
2023/03/04 13:20:20;;;;;;;8.20;2.30;;;;;;;;;;4994207;28;20428;-76
2023/03/04 13:22:57;;;;;;;11.95;2.90;;;;;;;;;;4994657;28;20431;-76
2023/03/04 13:25:37;;;;;;;8.68;2.50;;;;;;;;;;4995193;28;20409;-77
2023/03/04 13:28:14;;;;;;;7.97;2.03;;;;;;;;;;4994750;28;20180;-77
2023/03/04 13:30:55;;;;;;;7.93;2.20;;;;;;;;;;4978192;28;20204;-83
2023/03/04 13:33:21;;;;;;;11.93;2.65;;;;;;;;;;4977283;28;20413;-83
2023/03/04 13:36:01;;;;;;;13.43;2.47;;;;;;;;;;4974857;28;20238;-83
2023/03/04 13:38:29;;;;;;;9.63;2.50;;;;;;;;;;4972911;28;20189;-83
2023/03/04 13:41:14;;;;;;;11.88;2.83;;;;;;;;;;4984942;28;20421;-83
2023/03/04 13:43:44;;;;;;;13.45;3.13;;;;;;;;;;4978472;28;20508;-83
2023/03/04 13:46:19;;;;;;;13.65;2.90;;;;;;;;;;4994249;28;20417;-83
2023/03/04 13:48:51;;;;;;;12.68;3.00;;;;;;;;;;4976637;28;20413;-76
2023/03/04 13:51:25;;;;;;;11.93;3.13;;;;;;;;;;4973520;28;20423;-77
2023/03/04 13:53:57;;;;;;;11.07;2.85;;;;;;;;;;4994336;28;20431;-76
2023/03/04 13:56:23;;;;;;;10.32;2.58;;;;;;;;;;4985414;28;20442;-75
2023/03/04 13:58:51;;;;;;;10.57;2.85;;;;;;;;;;4979101;28;20428;-76
2023/03/04 14:01:25;;;;;;;9.70;2.50;;;;;;;;;;4997805;28;20495;-76
2023/03/04 14:03:51;;;;;;;10.18;2.90;;;;;;;;;;4980140;28;20437;-76
2023/03/04 14:06:20;;;;;;;15.17;2.80;;;;;;;;;;4993574;28;20184;-76
2023/03/04 14:08:47;;;;;;;10.00;2.65;;;;;;;;;;4982529;28;20421;-77
2023/03/04 14:11:14;;;;;;;9.80;2.65;;;;;;;;;;4957627;28;20446;-77
2023/03/04 14:13:41;;;;;;;9.02;2.55;;;;;;;;;;4952560;28;20427;-76
2023/03/04 14:16:07;;;;;;;9.00;2.20;;;;;;;;;;4960430;28;20428;-78
2023/03/04 14:18:33;;;;;;;6.03;2.33;;;;;;;;;;4957302;28;20246;-77
2023/03/04 14:21:00;;;;;;;9.75;2.63;;;;;;;;;;4952020;28;20423;-82
2023/03/04 14:23:28;;;;;;;10.27;3.08;;;;;;;;;;4946688;28;20499;-83
2023/03/04 14:26:09;;;;;;;11.87;2.63;;;;;;;;;;4949282;28;20179;-83
2023/03/04 14:28:42;;;;;;;11.63;2.80;;;;;;;;;;4949764;28;20480;-82
2023/03/04 14:31:14;;;;;;;10.35;2.50;;;;;;;;;;4948132;28;20436;-82
2023/03/04 14:33:43;;;;;;;9.80;2.60;;;;;;;;;;4953335;29;20183;-82
2023/03/04 14:36:15;;;;;;;8.60;1.93;;;;;;;;;;4956905;28;20190;-83
2023/03/04 14:38:42;;;;;;;8.00;2.50;;;;;;;;;;4973222;28;20406;-76
2023/03/04 14:41:19;;;;;;;5.03;2.13;;;;;;;;;;4957096;28;20234;-77
2023/03/04 14:43:48;;;;;;;9.82;2.38;;;;;;;;;;4934949;29;20450;-76